Time;durP1;ratioP1;P1;durP2;ratioP2;P2;SDS_P1;SDS_P2;PMS_P1;PMS_P2;Temp;Humidity;BMP_temperature;BMP_pressure;BME280_temperature;BME280_humidity;BME280_pressure;Samples;Min_cycle;Max_cycle;Signal;HPM_P1;HPM_P2
2021/10/01 00:01:20;;;;;;;6.75;5.57;;;8.80;99.90;;;;;;5011537;28;20062;-67
2021/10/01 00:03:45;;;;;;;10.23;5.75;;;8.80;99.90;;;;;;5011365;28;20083;-67
2021/10/01 00:06:11;;;;;;;15.35;5.72;;;8.80;99.90;;;;;;5011698;28;20037;-67
2021/10/01 00:08:37;;;;;;;10.32;6.20;;;8.70;99.90;;;;;;5011478;28;20030;-67
2021/10/01 00:11:03;;;;;;;12.27;5.97;;;8.70;99.90;;;;;;5011358;28;20410;-67
2021/10/01 00:13:29;;;;;;;6.82;5.35;;;8.70;99.90;;;;;;5011179;28;20042;-67
2021/10/01 00:15:54;;;;;;;10.10;5.38;;;8.70;99.90;;;;;;5011061;28;20523;-67
2021/10/01 00:18:21;;;;;;;8.70;6.13;;;8.70;99.90;;;;;;5011137;28;20027;-67
2021/10/01 00:20:46;;;;;;;8.57;6.55;;;8.70;99.90;;;;;;5011264;28;20080;-67
2021/10/01 00:23:13;;;;;;;12.02;5.72;;;8.70;99.90;;;;;;5011407;28;20022;-67
2021/10/01 00:25:39;;;;;;;11.35;5.90;;;8.70;99.90;;;;;;5011172;28;20122;-67
2021/10/01 00:28:05;;;;;;;10.60;6.60;;;8.70;99.90;;;;;;5011355;28;20022;-67
2021/10/01 00:30:30;;;;;;;8.80;5.88;;;8.70;99.90;;;;;;5011275;28;20384;-67
2021/10/01 00:32:58;;;;;;;8.45;6.40;;;8.70;99.90;;;;;;5010895;28;20422;-67
2021/10/01 00:35:24;;;;;;;9.30;5.70;;;8.70;99.90;;;;;;5011023;28;20032;-67
2021/10/01 00:37:50;;;;;;;8.07;5.80;;;8.80;99.90;;;;;;5011246;28;20026;-67
2021/10/01 00:40:16;;;;;;;8.20;6.00;;;8.70;99.90;;;;;;5010876;28;20022;-67
2021/10/01 00:42:42;;;;;;;10.43;6.72;;;8.70;99.90;;;;;;5011026;28;20079;-67
2021/10/01 00:45:08;;;;;;;8.93;5.70;;;8.70;99.90;;;;;;5010906;28;20099;-67
2021/10/01 00:47:34;;;;;;;9.63;6.10;;;8.70;99.90;;;;;;5010786;28;20084;-67
2021/10/01 00:50:00;;;;;;;12.70;6.28;;;8.70;99.90;;;;;;5011015;28;20018;-67
2021/10/01 00:52:25;;;;;;;9.05;5.82;;;8.70;99.90;;;;;;5010610;28;20113;-67
2021/10/01 00:54:52;;;;;;;8.93;5.47;;;8.70;99.90;;;;;;5010805;28;20129;-67
2021/10/01 00:57:19;;;;;;;12.73;6.30;;;8.70;99.90;;;;;;5010780;28;20053;-67
2021/10/01 00:59:45;;;;;;;8.77;5.80;;;8.70;99.90;;;;;;5010754;28;20030;-67
2021/10/01 01:02:11;;;;;;;10.02;5.70;;;8.70;99.90;;;;;;5010866;28;20386;-67
2021/10/01 01:04:43;;;;;;;10.00;6.32;;;8.70;99.90;;;;;;5009874;28;20022;-67
2021/10/01 01:07:37;;;;;;;8.20;6.32;;;8.60;99.90;;;;;;5011064;28;20390;-67
2021/10/01 01:10:14;;;;;;;15.05;6.55;;;8.60;99.90;;;;;;5010515;28;20022;-67
2021/10/01 01:12:43;;;;;;;11.95;6.32;;;8.60;99.90;;;;;;5010615;28;20363;-67
2021/10/01 01:15:17;;;;;;;10.00;6.43;;;8.60;99.90;;;;;;5010415;28;20034;-67
2021/10/01 01:17:50;;;;;;;10.38;6.90;;;8.60;99.90;;;;;;5010363;28;20026;-67
2021/10/01 01:20:24;;;;;;;9.65;7.07;;;8.50;99.90;;;;;;5010439;28;20113;-67
2021/10/01 01:22:52;;;;;;;8.40;6.53;;;8.50;99.90;;;;;;5010270;28;20077;-67
2021/10/01 01:25:39;;;;;;;9.13;6.05;;;8.60;99.90;;;;;;5010692;28;20018;-67
2021/10/01 01:28:12;;;;;;;8.95;6.60;;;8.60;99.90;;;;;;5010349;28;20026;-67
2021/10/01 01:30:44;;;;;;;10.82;6.90;;;8.60;99.90;;;;;;5010453;28;20033;-67
2021/10/01 01:33:18;;;;;;;7.45;6.45;;;8.60;99.90;;;;;;5010215;28;20497;-67
2021/10/01 01:35:45;;;;;;;8.32;6.57;;;8.50;99.90;;;;;;5010101;28;20022;-67
2021/10/01 01:38:17;;;;;;;9.20;6.40;;;8.50;99.90;;;;;;5010375;28;20041;-67
2021/10/01 01:40:48;;;;;;;8.70;5.75;;;8.50;99.90;;;;;;5008596;28;20389;-67
2021/10/01 01:43:15;;;;;;;8.35;6.70;;;8.50;99.90;;;;;;5009891;28;20038;-67
2021/10/01 01:45:43;;;;;;;11.23;6.75;;;8.40;99.90;;;;;;5009736;28;20482;-67
2021/10/01 01:48:09;;;;;;;7.35;5.85;;;8.40;99.90;;;;;;5009973;28;20419;-67
2021/10/01 01:50:37;;;;;;;8.10;6.10;;;8.40;99.90;;;;;;5009726;28;20508;-66
2021/10/01 01:53:03;;;;;;;8.07;6.18;;;8.40;99.90;;;;;;5009846;28;20106;-67
2021/10/01 01:55:30;;;;;;;10.00;6.30;;;8.40;99.90;;;;;;5010033;28;20026;-67
2021/10/01 01:57:58;;;;;;;8.73;6.43;;;8.40;99.90;;;;;;5009432;28;20057;-67
2021/10/01 02:00:24;;;;;;;7.90;5.30;;;8.30;99.90;;;;;;5009661;28;20109;-67
2021/10/01 02:02:53;;;;;;;10.20;6.25;;;8.30;99.90;;;;;;5009468;28;20037;-68
2021/10/01 02:05:20;;;;;;;6.03;4.93;;;8.30;99.90;;;;;;5009923;28;20381;-67
2021/10/01 02:07:47;;;;;;;6.60;5.50;;;8.30;99.90;;;;;;5009452;28;20030;-67
2021/10/01 02:10:15;;;;;;;8.88;5.00;;;8.20;99.90;;;;;;5009436;28;20054;-66
2021/10/01 02:12:44;;;;;;;7.68;6.30;;;8.20;99.90;;;;;;5009568;28;20030;-66
2021/10/01 02:15:11;;;;;;;13.65;6.40;;;8.10;99.90;;;;;;5009336;28;20036;-66
2021/10/01 02:17:39;;;;;;;8.90;5.60;;;8.10;99.90;;;;;;5009755;28;20053;-66
2021/10/01 02:20:08;;;;;;;9.07;5.45;;;8.10;99.90;;;;;;5009320;28;20061;-66
2021/10/01 02:22:34;;;;;;;9.02;6.22;;;8.10;99.90;;;;;;5009422;28;20030;-66
2021/10/01 02:54:08;;;;;;;13.52;9.98;;;7.70;99.90;;;;;;5008629;28;20447;-67
2021/10/01 02:56:40;;;;;;;10.73;9.63;;;7.80;99.90;;;;;;5009376;28;20477;-67
2021/10/01 02:59:08;;;;;;;11.98;9.40;;;7.80;99.90;;;;;;5008913;28;20087;-67
2021/10/01 03:01:37;;;;;;;13.13;10.07;;;7.80;99.90;;;;;;5009067;28;20030;-67
2021/10/01 03:04:08;;;;;;;12.45;10.05;;;7.90;99.90;;;;;;5008766;28;20038;-67
2021/10/01 03:06:38;;;;;;;13.38;10.07;;;7.90;99.90;;;;;;5009093;28;20034;-66
2021/10/01 03:09:05;;;;;;;12.43;10.35;;;7.80;99.90;;;;;;5008725;28;20026;-66
2021/10/01 03:11:31;;;;;;;17.83;10.90;;;7.80;99.90;;;;;;5008960;28;20041;-66
2021/10/01 03:13:59;;;;;;;12.65;10.20;;;7.80;99.90;;;;;;5008556;28;20486;-66
2021/10/01 03:16:26;;;;;;;14.15;10.68;;;7.80;99.90;;;;;;5007579;28;20025;-66
2021/10/01 03:18:55;;;;;;;16.75;10.43;;;7.80;99.90;;;;;;5008875;28;20056;-66
2021/10/01 03:21:23;;;;;;;12.40;10.30;;;7.90;99.90;;;;;;5008644;28;20052;-66
2021/10/01 03:23:49;;;;;;;13.50;10.43;;;7.90;99.90;;;;;;5008758;28;20595;-66
2021/10/01 03:26:17;;;;;;;13.20;10.57;;;7.80;99.90;;;;;;5008843;28;20079;-66
2021/10/01 03:28:43;;;;;;;14.60;11.40;;;7.80;99.90;;;;;;5012077;28;20060;-66
2021/10/01 03:31:09;;;;;;;13.23;11.15;;;7.80;99.90;;;;;;5012083;28;20363;-67
2021/10/01 03:33:35;;;;;;;15.40;11.45;;;7.80;99.90;;;;;;5011807;28;20065;-67
2021/10/01 03:36:01;;;;;;;14.20;11.10;;;7.90;99.90;;;;;;5011981;28;20115;-66
2021/10/01 03:38:27;;;;;;;14.05;11.27;;;7.90;99.90;;;;;;5011843;28;20030;-67
2021/10/01 03:40:53;;;;;;;14.45;11.45;;;7.90;99.90;;;;;;5011855;28;20033;-67
2021/10/01 03:43:24;;;;;;;14.15;11.27;;;7.90;99.90;;;;;;5011767;28;20394;-67
2021/10/01 03:45:50;;;;;;;16.23;11.75;;;7.90;99.90;;;;;;5011690;28;20022;-67
2021/10/01 03:48:16;;;;;;;15.88;12.63;;;7.90;99.90;;;;;;5011655;28;20026;-67
2021/10/01 03:50:42;;;;;;;14.23;11.43;;;7.90;99.90;;;;;;5011811;28;20484;-67
2021/10/01 03:53:08;;;;;;;13.52;11.82;;;8.00;99.90;;;;;;5011426;28;20393;-67
2021/10/01 03:55:35;;;;;;;16.20;11.05;;;7.90;99.90;;;;;;5011781;28;20443;-66
2021/10/01 03:58:01;;;;;;;17.40;11.00;;;7.90;99.90;;;;;;5011282;28;20459;-66
2021/10/01 04:00:27;;;;;;;15.88;10.65;;;7.90;99.90;;;;;;5011735;28;20026;-66
2021/10/01 04:02:54;;;;;;;13.55;10.80;;;7.90;99.90;;;;;;5011773;28;20080;-66
2021/10/01 04:05:20;;;;;;;15.13;11.27;;;7.90;99.90;;;;;;5011399;28;20485;-66
2021/10/01 04:07:46;;;;;;;15.23;12.18;;;8.00;99.90;;;;;;5011715;28;20030;-66
2021/10/01 04:10:12;;;;;;;17.63;11.55;;;8.00;99.90;;;;;;5011228;28;20459;-66
2021/10/01 04:12:38;;;;;;;12.88;10.30;;;8.00;99.90;;;;;;5011582;28;20401;-66
2021/10/01 04:15:05;;;;;;;12.27;10.45;;;8.00;99.90;;;;;;5011270;28;20030;-66
2021/10/01 04:17:31;;;;;;;14.77;12.10;;;8.00;99.90;;;;;;5011591;28;20435;-66
2021/10/01 04:19:58;;;;;;;16.25;11.27;;;8.00;99.90;;;;;;5010953;28;20029;-66
2021/10/01 04:22:24;;;;;;;16.80;11.90;;;8.00;99.90;;;;;;5011367;28;20041;-66
2021/10/01 04:24:50;;;;;;;15.57;11.48;;;8.00;99.90;;;;;;5011028;28;20022;-66
2021/10/01 04:27:15;;;;;;;15.38;11.35;;;8.10;99.90;;;;;;5011261;28;20050;-66
2021/10/01 04:29:42;;;;;;;15.93;11.55;;;8.10;99.90;;;;;;5011402;28;20480;-67
2021/10/01 04:32:09;;;;;;;17.67;12.07;;;8.10;99.90;;;;;;5010785;28;20133;-64
2021/10/01 04:34:49;;;;;;;13.85;10.75;;;8.10;99.90;;;;;;5011325;28;20109;-66
2021/10/01 04:37:14;;;;;;;17.55;11.45;;;8.10;99.90;;;;;;5010590;28;20029;-67
2021/10/01 04:39:40;;;;;;;6.90;4.20;;;8.10;99.90;;;;;;5010222;28;20470;-69
2021/10/01 04:42:06;;;;;;;16.50;11.00;;;8.40;99.90;;;;;;5010701;28;20022;-66
2021/10/01 04:44:32;;;;;;;11.43;9.23;;;9.70;99.90;;;;;;5010708;28;20038;-66
2021/10/01 04:46:57;;;;;;;13.82;9.82;;;9.70;99.90;;;;;;5010685;28;20022;-66
2021/10/01 04:49:24;;;;;;;16.17;9.95;;;9.40;99.90;;;;;;5010621;28;20543;-66
2021/10/01 04:51:49;;;;;;;13.90;9.77;;;9.00;99.90;;;;;;5010563;28;20417;-66
2021/10/01 04:54:15;;;;;;;15.90;10.32;;;8.80;99.90;;;;;;5010509;28;20034;-64
2021/10/01 04:56:41;;;;;;;16.85;10.38;;;8.70;99.90;;;;;;5010374;28;20026;-66
2021/10/01 04:59:07;;;;;;;15.07;10.77;;;8.70;99.90;;;;;;5008965;28;20109;-64
2021/10/01 05:01:33;;;;;;;13.45;9.63;;;8.60;99.90;;;;;;5010273;28;20030;-64
2021/10/01 05:03:58;;;;;;;17.83;10.95;;;8.60;99.90;;;;;;5011718;28;20412;-65
2021/10/01 05:06:24;;;;;;;14.68;11.10;;;8.50;99.90;;;;;;5013685;28;20065;-65
2021/10/01 05:08:50;;;;;;;15.27;11.32;;;8.40;99.90;;;;;;5010329;28;20063;-65
2021/10/01 05:11:15;;;;;;;16.20;11.32;;;8.40;99.90;;;;;;5010688;28;20034;-65
2021/10/01 05:13:41;;;;;;;17.52;10.68;;;8.40;99.90;;;;;;5010031;28;20154;-65
2021/10/01 05:16:07;;;;;;;16.10;11.07;;;8.40;99.90;;;;;;5009976;28;20025;-66
2021/10/01 05:18:33;;;;;;;12.55;10.65;;;8.40;99.90;;;;;;5010139;28;20030;-66
2021/10/01 05:21:02;;;;;;;17.33;11.55;;;8.40;99.90;;;;;;5009895;28;20022;-64
2021/10/01 05:23:30;;;;;;;14.07;10.55;;;8.40;99.90;;;;;;5010152;28;20036;-64
2021/10/01 05:25:56;;;;;;;17.17;10.73;;;8.50;99.90;;;;;;5010281;28;20068;-64
2021/10/01 05:28:22;;;;;;;13.45;10.65;;;8.50;99.90;;;;;;5010035;28;20527;-64
2021/10/01 05:30:47;;;;;;;15.57;10.15;;;8.40;99.90;;;;;;5009960;28;20033;-69
2021/10/01 05:33:14;;;;;;;19.25;11.30;;;8.40;99.90;;;;;;5009953;28;20038;-64
2021/10/01 05:35:44;;;;;;;13.80;10.75;;;8.50;99.90;;;;;;5009968;28;20587;-64
2021/10/01 05:38:12;;;;;;;15.95;10.93;;;8.40;99.90;;;;;;5010123;28;20034;-64
2021/10/01 05:40:38;;;;;;;15.43;11.27;;;8.40;99.90;;;;;;5009914;28;20051;-64
2021/10/01 05:43:05;;;;;;;13.85;11.10;;;8.40;99.90;;;;;;5009991;28;20090;-64
2021/10/01 05:45:31;;;;;;;13.20;9.95;;;8.40;99.90;;;;;;5010067;28;20477;-64
2021/10/01 05:47:57;;;;;;;16.52;11.70;;;8.40;99.90;;;;;;5009935;28;20021;-64
2021/10/01 05:50:25;;;;;;;13.68;11.07;;;8.40;99.90;;;;;;5009442;28;20414;-64
2021/10/01 05:52:58;;;;;;;15.63;10.52;;;8.40;99.90;;;;;;5009434;28;20038;-64
2021/10/01 05:55:24;;;;;;;20.48;10.43;;;8.40;99.90;;;;;;5009365;28;20142;-64
2021/10/01 05:57:50;;;;;;;14.68;11.52;;;8.40;99.90;;;;;;5009468;28;20092;-64
2021/10/01 06:00:16;;;;;;;17.42;11.38;;;8.40;99.90;;;;;;5009495;28;20541;-64
2021/10/01 06:02:43;;;;;;;16.27;11.40;;;8.40;99.90;;;;;;5009282;28;20393;-64
2021/10/01 06:05:10;;;;;;;54.17;15.40;;;8.40;99.90;;;;;;5009285;28;20022;-64
2021/10/01 06:07:35;;;;;;;16.38;11.45;;;8.70;99.90;;;;;;5009488;28;20029;-64
2021/10/01 06:10:03;;;;;;;15.55;11.82;;;8.90;99.90;;;;;;5009358;28;20033;-64
2021/10/01 06:12:28;;;;;;;20.80;11.20;;;9.10;99.90;;;;;;5009349;28;20030;-65
2021/10/01 06:14:54;;;;;;;16.52;11.95;;;9.20;99.90;;;;;;5009254;28;20485;-66
2021/10/01 06:17:20;;;;;;;14.57;11.55;;;9.10;99.90;;;;;;5009106;28;20022;-65
2021/10/01 06:19:45;;;;;;;16.33;11.95;;;9.00;99.90;;;;;;5009190;28;20040;-67
2021/10/01 06:22:12;;;;;;;12.68;10.80;;;8.80;99.90;;;;;;5009040;28;20030;-65
2021/10/01 06:24:39;;;;;;;15.88;11.68;;;8.70;99.90;;;;;;5009085;28;20048;-66
2021/10/01 06:27:06;;;;;;;20.90;11.32;;;8.70;99.90;;;;;;5009082;28;20075;-66
2021/10/01 06:29:32;;;;;;;14.00;10.05;;;8.60;99.90;;;;;;5009193;28;20463;-66
2021/10/01 06:31:58;;;;;;;14.07;10.63;;;9.00;99.90;;;;;;5009026;28;20033;-67
2021/10/01 06:34:24;;;;;;;14.32;10.80;;;8.90;99.90;;;;;;5008899;28;20413;-66
2021/10/01 06:36:50;;;;;;;14.68;11.15;;;8.90;99.90;;;;;;5009074;28;20397;-66
2021/10/01 06:39:16;;;;;;;13.25;10.65;;;8.80;99.90;;;;;;5008994;28;20038;-66
2021/10/01 06:41:42;;;;;;;18.50;11.00;;;8.80;99.90;;;;;;5008725;28;20080;-67
2021/10/01 06:44:12;;;;;;;19.85;12.45;;;8.70;99.90;;;;;;5008849;28;20050;-67
2021/10/01 06:52:13;;;;;;;18.13;12.07;;;8.60;99.90;;;;;;5009238;28;20034;-68
2021/10/01 07:36:22;;;;;;;22.70;14.75;;;8.80;99.90;;;;;;5011758;28;20033;-65
2021/10/01 08:19:30;;;;;;;17.30;12.50;;;9.10;99.90;;;;;;5011335;28;20060;-64
2021/10/01 08:21:57;;;;;;;22.10;13.25;;;9.10;99.90;;;;;;5010982;28;20442;-62
2021/10/01 08:24:24;;;;;;;19.80;12.70;;;9.10;99.90;;;;;;5011159;28;20382;-64
2021/10/01 08:26:51;;;;;;;22.02;12.35;;;9.10;99.90;;;;;;5011054;28;20034;-64
2021/10/01 08:29:17;;;;;;;19.45;12.05;;;9.80;99.90;;;;;;5010806;28;20018;-64
2021/10/01 08:31:44;;;;;;;18.45;12.77;;;9.90;99.90;;;;;;5011019;28;20420;-64
2021/10/01 08:34:11;;;;;;;24.30;11.40;;;9.70;99.90;;;;;;5010983;28;20037;-64
2021/10/01 08:36:37;;;;;;;19.17;12.90;;;9.50;99.90;;;;;;5011129;28;20462;-64
2021/10/01 08:39:05;;;;;;;19.48;13.35;;;9.40;99.90;;;;;;5010798;28;20042;-67
2021/10/01 08:41:31;;;;;;;19.50;12.85;;;9.30;99.90;;;;;;5010656;28;20029;-65
2021/10/01 08:43:58;;;;;;;17.33;12.18;;;9.70;99.90;;;;;;5011092;28;20030;-65
2021/10/01 08:46:24;;;;;;;17.17;12.48;;;9.60;99.90;;;;;;5010626;28;20078;-65
2021/10/01 08:48:52;;;;;;;13.77;11.32;;;9.40;99.90;;;;;;5011050;28;20045;-65
2021/10/01 08:51:17;;;;;;;14.35;10.90;;;9.30;99.90;;;;;;5010483;28;20374;-64
2021/10/01 08:53:43;;;;;;;21.13;10.90;;;9.30;99.90;;;;;;5010668;28;20034;-65
2021/10/01 08:56:10;;;;;;;14.20;10.20;;;9.30;99.90;;;;;;5010536;28;20036;-65
2021/10/01 08:58:36;;;;;;;13.85;11.23;;;9.30;99.90;;;;;;5010363;28;20557;-65
2021/10/01 09:01:03;;;;;;;14.50;10.80;;;9.30;99.90;;;;;;5010454;28;20022;-65
2021/10/01 09:03:29;;;;;;;29.50;12.27;;;9.30;99.90;;;;;;5010293;28;20030;-65
2021/10/01 09:05:55;;;;;;;15.45;11.15;;;9.20;99.90;;;;;;5010337;28;20032;-65
2021/10/01 09:08:23;;;;;;;16.75;11.95;;;9.20;99.90;;;;;;5010247;28;20030;-65
2021/10/01 09:11:07;;;;;;;13.40;10.88;;;9.30;99.90;;;;;;5010234;28;20024;-65
2021/10/01 09:13:34;;;;;;;11.63;9.85;;;9.30;99.90;;;;;;5010047;28;20056;-65
2021/10/01 09:16:05;;;;;;;13.68;10.52;;;9.30;99.90;;;;;;5010097;28;20022;-65
2021/10/01 09:18:34;;;;;;;13.38;10.40;;;9.30;99.90;;;;;;5010086;28;20021;-65
2021/10/01 09:21:26;;;;;;;14.88;9.80;;;9.30;99.90;;;;;;5010355;28;20030;-65
2021/10/01 09:24:01;;;;;;;13.77;8.35;;;9.20;99.90;;;;;;5007360;28;20038;-64
2021/10/01 09:26:29;;;;;;;11.32;9.35;;;9.30;99.90;;;;;;5009664;28;20500;-64
2021/10/01 09:29:07;;;;;;;12.15;9.18;;;9.20;99.90;;;;;;5010174;28;20390;-64
2021/10/01 09:31:38;;;;;;;12.85;9.88;;;9.30;99.90;;;;;;5009884;28;20038;-64
2021/10/01 09:34:10;;;;;;;13.98;9.23;;;9.30;99.90;;;;;;5009804;28;20038;-64
2021/10/01 09:36:36;;;;;;;14.90;10.93;;;9.30;99.90;;;;;;5010155;28;20044;-64
2021/10/01 09:39:05;;;;;;;14.00;9.88;;;9.30;99.90;;;;;;5010300;28;20029;-63
2021/10/01 09:41:33;;;;;;;14.20;10.70;;;9.30;99.90;;;;;;5010120;28;20022;-64
2021/10/01 09:44:02;;;;;;;12.60;10.50;;;9.20;99.90;;;;;;5010012;28;20030;-64
2021/10/01 09:46:38;;;;;;;17.10;12.73;;;9.20;99.90;;;;;;5009982;28;20029;-64
2021/10/01 09:49:04;;;;;;;14.35;11.57;;;9.20;99.90;;;;;;5010138;28;20071;-64
2021/10/01 09:51:31;;;;;;;14.02;11.52;;;9.30;99.90;;;;;;5009443;28;20078;-64
2021/10/01 09:53:57;;;;;;;17.02;11.88;;;9.30;99.90;;;;;;5009612;28;20072;-64
2021/10/01 09:56:31;;;;;;;20.42;12.23;;;9.30;99.90;;;;;;5009407;28;20461;-64
2021/10/01 09:59:10;;;;;;;18.67;11.93;;;9.30;99.90;;;;;;5009554;28;20542;-64
2021/10/01 10:02:05;;;;;;;14.07;11.43;;;9.30;99.90;;;;;;5009334;28;20026;-64
2021/10/01 10:04:34;;;;;;;18.58;12.63;;;9.30;99.90;;;;;;5011487;28;20041;-64
2021/10/01 10:07:13;;;;;;;17.40;11.73;;;9.30;99.90;;;;;;5009494;28;20022;-64
2021/10/01 10:09:54;;;;;;;20.27;13.15;;;9.30;99.90;;;;;;5009331;28;20378;-64
2021/10/01 10:12:21;;;;;;;;;;;9.30;99.90;;;;;;5009503;28;20418;-64
2021/10/01 10:14:50;;;;;;;19.25;13.10;;;9.30;99.90;;;;;;5009405;28;19909;-64
2021/10/01 10:17:22;;;;;;;19.42;12.85;;;9.30;99.90;;;;;;5009178;28;20060;-64
2021/10/01 10:20:00;;;;;;;19.25;12.35;;;9.30;99.90;;;;;;5009287;28;20084;-64
2021/10/01 10:22:29;;;;;;;26.08;15.20;;;9.30;99.90;;;;;;5009157;28;20033;-64
2021/10/01 10:24:56;;;;;;;22.00;13.00;;;9.30;99.90;;;;;;5009099;28;20110;-64
2021/10/01 10:27:24;;;;;;;21.92;13.48;;;9.40;99.90;;;;;;5008920;28;20105;-63
2021/10/01 10:29:52;;;;;;;48.22;18.17;;;9.40;99.90;;;;;;5008975;28;20024;-63
2021/10/01 10:32:19;;;;;;;24.25;15.75;;;9.40;99.90;;;;;;5008744;28;20026;-64
2021/10/01 10:34:53;;;;;;;23.63;16.33;;;9.40;99.90;;;;;;5009288;28;20396;-64
2021/10/01 10:37:20;;;;;;;28.58;17.33;;;9.40;99.90;;;;;;5010870;28;20022;-64
2021/10/01 10:39:49;;;;;;;19.40;14.20;;;9.40;99.90;;;;;;5012637;28;20022;-64
2021/10/01 10:42:28;;;;;;;18.98;13.43;;;9.40;99.90;;;;;;5012291;28;20040;-63
2021/10/01 10:44:56;;;;;;;15.83;12.30;;;9.40;99.90;;;;;;5012556;28;20037;-63
2021/10/01 10:47:41;;;;;;;16.73;11.65;;;9.40;99.90;;;;;;5012137;28;20025;-65
2021/10/01 10:50:25;;;;;;;17.63;11.65;;;9.50;99.90;;;;;;5012306;28;20148;-64
2021/10/01 10:55:35;;;;;;;15.90;10.60;;;9.50;99.90;;;;;;5012467;28;20038;-64
2021/10/01 10:58:23;;;;;;;21.42;12.20;;;9.50;99.90;;;;;;5012122;28;20038;-64
2021/10/01 11:00:55;;;;;;;19.95;12.40;;;9.50;99.90;;;;;;5012260;28;20018;-64
2021/10/01 11:03:29;;;;;;;20.13;12.65;;;9.60;99.90;;;;;;5012054;28;20036;-64
2021/10/01 11:06:10;;;;;;;19.27;11.75;;;9.60;99.90;;;;;;5012576;28;20033;-64
2021/10/01 11:08:47;;;;;;;14.55;11.20;;;9.60;99.90;;;;;;5012224;28;20367;-64
2021/10/01 11:11:34;;;;;;;19.75;12.15;;;9.60;99.90;;;;;;5012187;28;20109;-64
2021/10/01 11:14:14;;;;;;;16.80;11.48;;;9.60;99.90;;;;;;5012114;28;20038;-64
2021/10/01 11:16:44;;;;;;;15.75;11.02;;;9.70;99.90;;;;;;5011904;28;20108;-64
2021/10/01 11:19:10;;;;;;;17.67;11.18;;;9.60;99.90;;;;;;5011833;28;20068;-64
2021/10/01 11:21:37;;;;;;;14.52;10.13;;;9.60;99.90;;;;;;5011782;28;20049;-64
2021/10/01 11:24:06;;;;;;;15.50;10.65;;;9.60;99.90;;;;;;5011913;28;20030;-64
2021/10/01 11:26:56;;;;;;;19.98;10.82;;;9.60;99.90;;;;;;5011784;28;20053;-64
2021/10/01 11:29:26;;;;;;;18.20;11.82;;;9.60;99.90;;;;;;5013789;28;20038;-69
2021/10/01 11:31:55;;;;;;;17.80;9.85;;;9.60;99.90;;;;;;5011596;28;20521;-64
2021/10/01 11:34:39;;;;;;;17.08;9.60;;;10.70;99.90;;;;;;5011308;28;20435;-64
2021/10/01 11:37:36;;;;;;;17.60;9.98;;;10.70;99.90;;;;;;5011885;28;20026;-64
2021/10/01 11:40:04;;;;;;;13.43;9.18;;;10.40;99.90;;;;;;5011829;28;20069;-64
2021/10/01 11:42:40;;;;;;;14.20;9.50;;;10.20;99.90;;;;;;5011380;28;20037;-64
2021/10/01 11:45:25;;;;;;;20.55;10.55;;;10.10;99.90;;;;;;5011469;28;20465;-64
2021/10/01 11:48:02;;;;;;;12.55;8.45;;;10.00;99.90;;;;;;5009686;28;20424;-64
2021/10/01 11:50:30;;;;;;;13.43;8.18;;;9.90;99.90;;;;;;5011549;28;20393;-64
2021/10/01 11:52:58;;;;;;;15.75;9.90;;;9.90;99.90;;;;;;5011266;28;20085;-64
2021/10/01 11:55:26;;;;;;;14.27;9.48;;;9.90;99.90;;;;;;5011247;28;20026;-64
2021/10/01 11:57:51;;;;;;;12.77;9.30;;;9.90;99.90;;;;;;5011251;28;20386;-64
2021/10/01 12:00:18;;;;;;;11.18;8.93;;;9.90;99.90;;;;;;5011704;28;20030;-63
2021/10/01 12:02:46;;;;;;;12.93;8.68;;;9.90;99.90;;;;;;5011427;28;20025;-63
2021/10/01 12:05:30;;;;;;;15.27;9.35;;;10.60;99.90;;;;;;5011668;28;20634;-64
2021/10/01 12:08:01;;;;;;;22.10;10.85;;;10.80;99.90;;;;;;5011372;28;20040;-64
2021/10/01 12:10:30;;;;;;;13.68;9.43;;;10.50;99.90;;;;;;5011213;28;20018;-64
2021/10/01 12:13:00;;;;;;;13.70;9.23;;;10.30;99.90;;;;;;5011180;28;20426;-64
2021/10/01 12:15:44;;;;;;;17.27;10.10;;;10.20;99.90;;;;;;5011233;28;20469;-64
2021/10/01 12:18:28;;;;;;;14.18;10.10;;;10.20;99.90;;;;;;5010957;28;20045;-64
2021/10/01 12:20:55;;;;;;;14.82;9.02;;;10.10;99.90;;;;;;5011087;28;20025;-64
2021/10/01 12:23:31;;;;;;;14.85;9.82;;;10.10;99.90;;;;;;5010831;28;20436;-64
2021/10/01 12:26:13;;;;;;;13.82;8.88;;;10.10;99.90;;;;;;5011239;28;20028;-63
2021/10/01 12:28:40;;;;;;;11.45;8.02;;;10.10;99.90;;;;;;5011084;28;20505;-64
2021/10/01 12:31:06;;;;;;;14.93;9.07;;;10.10;99.90;;;;;;5009940;28;20057;-64
2021/10/01 12:33:33;;;;;;;11.13;8.25;;;10.10;99.90;;;;;;5015890;28;20044;-63
2021/10/01 12:35:59;;;;;;;14.50;8.75;;;10.00;99.90;;;;;;5019497;28;20021;-64
2021/10/01 12:38:26;;;;;;;10.90;7.82;;;10.00;99.90;;;;;;5020541;28;20049;-64
2021/10/01 12:41:12;;;;;;;9.77;7.90;;;10.00;99.90;;;;;;5020954;28;20418;-64
2021/10/01 12:43:48;;;;;;;11.15;7.93;;;10.10;99.90;;;;;;5021124;28;20022;-64
2021/10/01 12:46:51;;;;;;;12.60;7.35;;;10.10;99.90;;;;;;5027169;28;20026;-64
2021/10/01 12:49:22;;;;;;;8.80;7.03;;;10.10;99.90;;;;;;5030405;28;20523;-64
2021/10/01 12:52:15;;;;;;;11.50;8.60;;;10.10;99.90;;;;;;5011864;28;20478;-64
2021/10/01 12:54:54;;;;;;;13.65;7.80;;;10.10;99.90;;;;;;5027636;28;20040;-65
2021/10/01 12:57:33;;;;;;;11.60;8.18;;;10.10;99.90;;;;;;5015643;28;20038;-65
2021/10/01 13:00:02;;;;;;;14.40;8.25;;;10.10;99.90;;;;;;5014897;28;20367;-65
2021/10/01 13:02:40;;;;;;;14.07;8.23;;;10.10;99.90;;;;;;5015737;28;20436;-64
2021/10/01 13:05:07;;;;;;;14.07;8.43;;;10.10;99.90;;;;;;5014684;28;20030;-64
2021/10/01 13:07:44;;;;;;;16.83;8.10;;;10.20;99.90;;;;;;5027082;28;20519;-65
2021/10/01 13:10:13;;;;;;;12.55;8.00;;;10.20;99.90;;;;;;5025905;28;20409;-65
2021/10/01 13:13:03;;;;;;;15.18;8.50;;;10.20;99.90;;;;;;5017882;28;20033;-65
2021/10/01 13:15:48;;;;;;;19.30;8.73;;;10.20;99.90;;;;;;5020077;28;20420;-64
2021/10/01 13:18:27;;;;;;;12.23;7.60;;;10.20;99.90;;;;;;5021504;28;20029;-64
2021/10/01 13:21:10;;;;;;;12.60;7.30;;;10.20;99.90;;;;;;5018008;28;20022;-65
2021/10/01 13:23:46;;;;;;;10.90;7.70;;;10.20;99.90;;;;;;5017940;28;20509;-64
2021/10/01 13:26:14;;;;;;;12.77;7.28;;;10.20;99.90;;;;;;5018709;28;20045;-65
2021/10/01 13:28:41;;;;;;;12.48;6.50;;;10.20;99.90;;;;;;5018522;28;20010;-65
2021/10/01 13:31:08;;;;;;;9.23;6.65;;;10.20;99.90;;;;;;5019814;28;20028;-64
2021/10/01 13:33:34;;;;;;;11.30;6.78;;;10.20;99.90;;;;;;5020502;28;20045;-65
2021/10/01 13:36:00;;;;;;;9.73;5.70;;;10.20;99.90;;;;;;5018623;28;20494;-65
2021/10/01 13:38:33;;;;;;;9.65;6.40;;;10.30;99.90;;;;;;5019754;28;20073;-64
2021/10/01 13:41:00;;;;;;;7.90;5.80;;;10.30;99.90;;;;;;5020438;28;20028;-64
2021/10/01 13:43:27;;;;;;;10.60;6.63;;;10.30;99.90;;;;;;5018917;28;20026;-64
2021/10/01 13:45:53;;;;;;;12.75;6.72;;;10.30;99.90;;;;;;5018942;28;20075;-64
2021/10/01 13:48:19;;;;;;;7.13;5.63;;;10.30;99.90;;;;;;5020409;28;20394;-65
2021/10/01 13:50:45;;;;;;;7.50;4.90;;;10.30;99.90;;;;;;5019207;28;20033;-64
2021/10/01 13:53:11;;;;;;;7.28;4.82;;;10.30;99.90;;;;;;5018611;28;20538;-64
2021/10/01 13:55:37;;;;;;;8.98;5.13;;;10.30;99.90;;;;;;5020333;28;20025;-64
2021/10/01 13:58:03;;;;;;;9.95;5.93;;;10.30;99.90;;;;;;5018652;28;20053;-64
2021/10/01 14:00:28;;;;;;;9.30;5.10;;;10.30;99.90;;;;;;5018808;28;20033;-64
2021/10/01 14:02:54;;;;;;;8.98;5.03;;;10.20;99.90;;;;;;5020176;28;20071;-64
2021/10/01 14:05:20;;;;;;;9.80;5.30;;;10.30;99.90;;;;;;5018419;28;20137;-64
2021/10/01 14:07:46;;;;;;;11.13;5.65;;;10.30;99.90;;;;;;5019055;28;20028;-64
2021/10/01 14:10:18;;;;;;;10.05;5.95;;;10.30;99.90;;;;;;5019780;28;20018;-64
2021/10/01 14:12:47;;;;;;;9.13;5.32;;;10.30;99.90;;;;;;5016982;28;20037;-64
2021/10/01 14:15:14;;;;;;;8.32;5.75;;;10.30;99.90;;;;;;5019831;28;20022;-64
2021/10/01 14:17:40;;;;;;;9.20;6.22;;;10.30;99.90;;;;;;5020433;28;20049;-64
2021/10/01 14:20:08;;;;;;;7.88;5.72;;;10.30;99.90;;;;;;5020630;28;20060;-64
2021/10/01 14:22:34;;;;;;;10.27;5.80;;;10.30;99.90;;;;;;5015214;28;20030;-64
2021/10/01 14:25:00;;;;;;;14.18;6.40;;;10.30;99.90;;;;;;5011910;28;20014;-64
2021/10/01 14:27:26;;;;;;;12.60;6.32;;;10.30;99.90;;;;;;5026888;28;20477;-64
2021/10/01 14:29:53;;;;;;;12.88;6.90;;;10.30;99.90;;;;;;5026305;28;20029;-64
2021/10/01 14:32:20;;;;;;;11.43;6.60;;;10.40;99.90;;;;;;5014521;28;20397;-64
2021/10/01 14:34:46;;;;;;;11.43;6.80;;;10.40;99.90;;;;;;5018643;28;20453;-64
2021/10/01 14:37:11;;;;;;;14.70;6.00;;;10.40;99.90;;;;;;5018393;28;20021;-64
2021/10/01 14:39:37;;;;;;;8.63;5.97;;;10.40;99.90;;;;;;5019494;28;20079;-64
2021/10/01 14:42:03;;;;;;;14.82;6.65;;;10.40;99.90;;;;;;5018230;28;20047;-64
2021/10/01 14:44:29;;;;;;;10.60;5.97;;;10.40;99.90;;;;;;5018600;28;20036;-64
2021/10/01 14:46:55;;;;;;;14.43;6.63;;;10.50;99.90;;;;;;5019459;28;20403;-64
2021/10/01 14:49:22;;;;;;;9.38;5.82;;;10.50;99.90;;;;;;5017631;28;20031;-64
2021/10/01 14:51:48;;;;;;;13.73;5.88;;;10.50;99.90;;;;;;5018148;28;20109;-64